sensor_id;sensor_type;location;lat;lon;timestamp;pressure;altitude;pressure_sealevel;temperature;humidity
12868;BME280;33517;49.866;8.320;2023-02-22T00:00:08;100456.66;;;3.99;81.19
12868;BME280;33517;49.866;8.320;2023-02-22T00:03:10;100461.28;;;3.96;80.46
12868;BME280;33517;49.866;8.320;2023-02-22T00:06:04;100453.13;;;3.89;80.92
12868;BME280;33517;49.866;8.320;2023-02-22T00:08:57;100445.44;;;3.88;81.03
12868;BME280;33517;49.866;8.320;2023-02-22T00:11:49;100444.88;;;3.84;81.14
12868;BME280;33517;49.866;8.320;2023-02-22T00:14:42;100445.00;;;3.83;81.05
12868;BME280;33517;49.866;8.320;2023-02-22T00:17:34;100441.69;;;3.81;81.26
12868;BME280;33517;49.866;8.320;2023-02-22T00:20:26;100433.97;;;3.79;81.50
12868;BME280;33517;49.866;8.320;2023-02-22T00:23:20;100439.88;;;3.81;81.83
12868;BME280;33517;49.866;8.320;2023-02-22T00:26:13;100431.50;;;3.78;82.09
12868;BME280;33517;49.866;8.320;2023-02-22T00:29:07;100430.91;;;3.74;81.65
12868;BME280;33517;49.866;8.320;2023-02-22T00:32:01;100427.59;;;3.72;81.95
12868;BME280;33517;49.866;8.320;2023-02-22T00:34:53;100435.09;;;3.65;82.02
12868;BME280;33517;49.866;8.320;2023-02-22T00:37:47;100430.09;;;3.62;81.77
12868;BME280;33517;49.866;8.320;2023-02-22T00:40:39;100425.25;;;3.58;81.75
12868;BME280;33517;49.866;8.320;2023-02-22T00:43:31;100425.63;;;3.53;81.98
12868;BME280;33517;49.866;8.320;2023-02-22T00:46:23;100422.53;;;3.48;81.98
12868;BME280;33517;49.866;8.320;2023-02-22T00:49:16;100421.03;;;3.46;81.77
12868;BME280;33517;49.866;8.320;2023-02-22T00:52:08;100423.63;;;3.46;82.05
12868;BME280;33517;49.866;8.320;2023-02-22T00:55:00;100417.13;;;3.40;81.73
12868;BME280;33517;49.866;8.320;2023-02-22T00:57:52;100417.47;;;3.36;81.81
12868;BME280;33517;49.866;8.320;2023-02-22T01:00:45;100421.28;;;3.32;81.72
12868;BME280;33517;49.866;8.320;2023-02-22T01:03:38;100413.00;;;3.27;81.69
12868;BME280;33517;49.866;8.320;2023-02-22T01:06:32;100404.63;;;3.23;81.57
12868;BME280;33517;49.866;8.320;2023-02-22T01:09:24;100398.59;;;3.23;81.94
12868;BME280;33517;49.866;8.320;2023-02-22T01:12:16;100398.59;;;3.23;81.87
12868;BME280;33517;49.866;8.320;2023-02-22T01:15:10;100399.28;;;3.25;81.65
12868;BME280;33517;49.866;8.320;2023-02-22T01:18:02;100406.84;;;3.17;81.29
12868;BME280;33517;49.866;8.320;2023-02-22T01:20:55;100398.34;;;3.15;81.61
12868;BME280;33517;49.866;8.320;2023-02-22T01:23:48;100393.97;;;3.15;82.03
12868;BME280;33517;49.866;8.320;2023-02-22T01:26:41;100396.72;;;3.14;82.31
12868;BME280;33517;49.866;8.320;2023-02-22T01:29:34;100396.47;;;3.17;82.38
12868;BME280;33517;49.866;8.320;2023-02-22T01:32:26;100390.28;;;3.18;82.08
12868;BME280;33517;49.866;8.320;2023-02-22T01:35:22;100389.81;;;3.24;82.80
12868;BME280;33517;49.866;8.320;2023-02-22T01:38:14;100388.19;;;3.23;82.73
12868;BME280;33517;49.866;8.320;2023-02-22T01:41:07;100379.91;;;3.18;82.31
12868;BME280;33517;49.866;8.320;2023-02-22T01:44:19;100371.03;;;3.20;82.39
12868;BME280;33517;49.866;8.320;2023-02-22T01:47:11;100372.81;;;3.20;82.73
12868;BME280;33517;49.866;8.320;2023-02-22T01:50:03;100377.28;;;3.18;82.73
12868;BME280;33517;49.866;8.320;2023-02-22T01:52:57;100373.91;;;3.17;82.65
12868;BME280;33517;49.866;8.320;2023-02-22T01:55:50;100374.81;;;3.16;82.77
12868;BME280;33517;49.866;8.320;2023-02-22T01:58:46;100361.59;;;3.08;82.44
12868;BME280;33517;49.866;8.320;2023-02-22T02:01:41;100361.25;;;3.02;82.84
12868;BME280;33517;49.866;8.320;2023-02-22T02:04:35;100358.06;;;2.98;82.58
12868;BME280;33517;49.866;8.320;2023-02-22T02:07:28;100359.97;;;2.96;82.42
12868;BME280;33517;49.866;8.320;2023-02-22T02:10:20;100361.59;;;2.97;82.69
12868;BME280;33517;49.866;8.320;2023-02-22T02:13:13;100358.19;;;2.97;83.04
12868;BME280;33517;49.866;8.320;2023-02-22T02:16:07;100363.38;;;2.97;83.18
12868;BME280;33517;49.866;8.320;2023-02-22T02:18:59;100363.25;;;2.98;83.07
12868;BME280;33517;49.866;8.320;2023-02-22T02:22:19;100360.41;;;3.01;82.92
12868;BME280;33517;49.866;8.320;2023-02-22T02:25:46;100358.66;;;3.02;83.14
12868;BME280;33517;49.866;8.320;2023-02-22T02:29:12;100360.28;;;3.03;82.90
12868;BME280;33517;49.866;8.320;2023-02-22T02:35:42;100358.75;;;3.11;83.16
12868;BME280;33517;49.866;8.320;2023-02-22T02:38:42;100353.91;;;3.07;83.16
12868;BME280;33517;49.866;8.320;2023-02-22T02:41:38;100354.88;;;3.06;82.88
12868;BME280;33517;49.866;8.320;2023-02-22T02:44:36;100346.38;;;3.04;83.37
12868;BME280;33517;49.866;8.320;2023-02-22T02:47:36;100351.56;;;3.04;83.61
12868;BME280;33517;49.866;8.320;2023-02-22T02:50:33;100349.09;;;3.02;83.38
12868;BME280;33517;49.866;8.320;2023-02-22T02:53:31;100344.25;;;2.98;82.83
12868;BME280;33517;49.866;8.320;2023-02-22T02:56:24;100336.78;;;2.93;83.41
12868;BME280;33517;49.866;8.320;2023-02-22T02:59:24;100331.59;;;2.93;83.62
12868;BME280;33517;49.866;8.320;2023-02-22T03:02:32;100333.00;;;2.97;83.11
12868;BME280;33517;49.866;8.320;2023-02-22T03:05:42;100331.50;;;2.95;83.64
12868;BME280;33517;49.866;8.320;2023-02-22T03:08:42;100331.84;;;2.90;84.05
12868;BME280;33517;49.866;8.320;2023-02-22T03:11:44;100320.84;;;2.87;84.29
12868;BME280;33517;49.866;8.320;2023-02-22T03:14:51;100326.97;;;2.86;83.96
12868;BME280;33517;49.866;8.320;2023-02-22T03:17:50;100324.38;;;2.86;84.31
12868;BME280;33517;49.866;8.320;2023-02-22T03:20:48;100325.22;;;2.86;84.37
12868;BME280;33517;49.866;8.320;2023-02-22T03:23:47;100323.81;;;2.82;84.10
12868;BME280;33517;49.866;8.320;2023-02-22T03:26:47;100319.56;;;2.81;84.49
12868;BME280;33517;49.866;8.320;2023-02-22T03:29:44;100319.78;;;2.78;84.14
12868;BME280;33517;49.866;8.320;2023-02-22T03:32:43;100317.19;;;2.78;84.82
12868;BME280;33517;49.866;8.320;2023-02-22T03:35:41;100314.84;;;2.75;85.24
12868;BME280;33517;49.866;8.320;2023-02-22T03:38:38;100312.13;;;2.76;85.43
12868;BME280;33517;49.866;8.320;2023-02-22T03:41:33;100305.16;;;2.77;85.27
12868;BME280;33517;49.866;8.320;2023-02-22T03:44:30;100302.91;;;2.72;84.92
12868;BME280;33517;49.866;8.320;2023-02-22T03:47:28;100296.53;;;2.65;85.08
12868;BME280;33517;49.866;8.320;2023-02-22T03:50:26;100301.72;;;2.65;84.52
12868;BME280;33517;49.866;8.320;2023-02-22T03:53:20;100303.25;;;2.57;84.71
12868;BME280;33517;49.866;8.320;2023-02-22T03:56:21;100299.13;;;2.54;85.28
12868;BME280;33517;49.866;8.320;2023-02-22T03:59:14;100301.94;;;2.51;85.02
12868;BME280;33517;49.866;8.320;2023-02-22T04:02:06;100306.66;;;2.46;84.68
12868;BME280;33517;49.866;8.320;2023-02-22T04:04:58;100312.69;;;2.47;85.16
12868;BME280;33517;49.866;8.320;2023-02-22T04:07:50;100306.53;;;2.48;85.13
12868;BME280;33517;49.866;8.320;2023-02-22T04:10:42;100303.00;;;2.49;84.89
12868;BME280;33517;49.866;8.320;2023-02-22T04:13:36;100304.53;;;2.51;85.30
12868;BME280;33517;49.866;8.320;2023-02-22T04:16:28;100307.25;;;2.50;85.12
12868;BME280;33517;49.866;8.320;2023-02-22T04:19:20;100311.97;;;2.45;84.85
12868;BME280;33517;49.866;8.320;2023-02-22T04:22:12;100304.72;;;2.26;88.25
12868;BME280;33517;49.866;8.320;2023-02-22T04:25:04;100298.81;;;2.24;88.15
12868;BME280;33517;49.866;8.320;2023-02-22T04:27:56;100293.88;;;2.32;88.00
12868;BME280;33517;49.866;8.320;2023-02-22T04:30:49;100293.56;;;2.37;87.84
12868;BME280;33517;49.866;8.320;2023-02-22T04:33:42;100293.44;;;2.38;87.42
12868;BME280;33517;49.866;8.320;2023-02-22T04:36:33;100289.53;;;2.44;87.38
12868;BME280;33517;49.866;8.320;2023-02-22T04:39:25;100288.38;;;2.48;87.54
12868;BME280;33517;49.866;8.320;2023-02-22T04:42:17;100295.44;;;2.57;87.02
12868;BME280;33517;49.866;8.320;2023-02-22T04:45:09;100285.06;;;2.57;86.48
12868;BME280;33517;49.866;8.320;2023-02-22T04:48:03;100288.63;;;2.56;87.03
12868;BME280;33517;49.866;8.320;2023-02-22T04:50:55;100286.84;;;2.56;86.41
12868;BME280;33517;49.866;8.320;2023-02-22T04:53:47;100286.22;;;2.53;86.91
12868;BME280;33517;49.866;8.320;2023-02-22T04:56:39;100284.81;;;2.49;87.05
12868;BME280;33517;49.866;8.320;2023-02-22T04:59:30;100286.59;;;2.48;86.96
12868;BME280;33517;49.866;8.320;2023-02-22T05:02:24;100280.69;;;2.46;87.40
12868;BME280;33517;49.866;8.320;2023-02-22T05:05:18;100285.06;;;2.46;87.38
12868;BME280;33517;49.866;8.320;2023-02-22T05:08:11;100280.34;;;2.51;86.90
12868;BME280;33517;49.866;8.320;2023-02-22T05:11:04;100272.53;;;2.51;86.75
12868;BME280;33517;49.866;8.320;2023-02-22T05:13:56;100274.44;;;2.49;86.49
12868;BME280;33517;49.866;8.320;2023-02-22T05:16:47;100261.44;;;2.49;86.73
12868;BME280;33517;49.866;8.320;2023-02-22T05:19:40;100272.06;;;2.57;87.01
12868;BME280;33517;49.866;8.320;2023-02-22T05:22:33;100271.59;;;2.63;87.07
12868;BME280;33517;49.866;8.320;2023-02-22T05:25:26;100275.38;;;2.70;87.12
12868;BME280;33517;49.866;8.320;2023-02-22T05:28:18;100268.53;;;2.69;86.47
12868;BME280;33517;49.866;8.320;2023-02-22T05:31:10;100273.41;;;2.73;86.86
12868;BME280;33517;49.866;8.320;2023-02-22T05:34:02;100270.41;;;2.78;86.89
12868;BME280;33517;49.866;8.320;2023-02-22T05:36:54;100262.50;;;2.79;86.54
12868;BME280;33517;49.866;8.320;2023-02-22T05:39:47;100272.09;;;2.79;86.28
12868;BME280;33517;49.866;8.320;2023-02-22T05:42:40;100265.94;;;2.80;86.73
12868;BME280;33517;49.866;8.320;2023-02-22T05:45:32;100267.47;;;2.94;87.13
12868;BME280;33517;49.866;8.320;2023-02-22T05:48:24;100268.97;;;3.07;87.02
12868;BME280;33517;49.866;8.320;2023-02-22T05:51:16;100268.72;;;3.10;86.06
12868;BME280;33517;49.866;8.320;2023-02-22T05:54:09;100275.34;;;3.14;86.54
12868;BME280;33517;49.866;8.320;2023-02-22T05:57:02;100267.22;;;3.08;87.11
12868;BME280;33517;49.866;8.320;2023-02-22T05:59:54;100270.03;;;3.16;87.91
12868;BME280;33517;49.866;8.320;2023-02-22T06:02:46;100274.75;;;3.11;90.29
12868;BME280;33517;49.866;8.320;2023-02-22T06:05:38;100274.63;;;3.23;90.18
12868;BME280;33517;49.866;8.320;2023-02-22T06:08:30;100269.63;;;3.31;89.71
12868;BME280;33517;49.866;8.320;2023-02-22T06:11:22;100271.50;;;3.29;89.68
12868;BME280;33517;49.866;8.320;2023-02-22T06:14:15;100264.31;;;3.33;89.69
12868;BME280;33517;49.866;8.320;2023-02-22T06:17:07;100266.47;;;3.17;91.69
12868;BME280;33517;49.866;8.320;2023-02-22T06:19:59;100267.19;;;3.19;91.75
12868;BME280;33517;49.866;8.320;2023-02-22T06:22:52;100258.00;;;3.04;91.90
12868;BME280;33517;49.866;8.320;2023-02-22T06:25:44;100264.75;;;3.06;92.04
12868;BME280;33517;49.866;8.320;2023-02-22T06:28:36;100266.84;;;3.01;93.25
12868;BME280;33517;49.866;8.320;2023-02-22T06:31:29;100268.00;;;3.08;93.77
12868;BME280;33517;49.866;8.320;2023-02-22T06:34:21;100268.00;;;3.19;92.63
12868;BME280;33517;49.866;8.320;2023-02-22T06:37:13;100271.41;;;3.20;92.85
12868;BME280;33517;49.866;8.320;2023-02-22T06:40:06;100274.19;;;3.39;92.35
12868;BME280;33517;49.866;8.320;2023-02-22T06:42:58;100276.31;;;3.56;92.45
12868;BME280;33517;49.866;8.320;2023-02-22T06:45:50;100279.38;;;3.82;93.46
12868;BME280;33517;49.866;8.320;2023-02-22T06:48:43;100290.38;;;4.06;92.73
12868;BME280;33517;49.866;8.320;2023-02-22T06:51:35;100287.09;;;4.04;92.64
12868;BME280;33517;49.866;8.320;2023-02-22T06:54:34;100302.63;;;3.94;93.51
12868;BME280;33517;49.866;8.320;2023-02-22T06:57:26;100300.91;;;4.04;94.89
12868;BME280;33517;49.866;8.320;2023-02-22T07:00:20;100295.72;;;4.25;93.94
12868;BME280;33517;49.866;8.320;2023-02-22T07:03:14;100297.59;;;4.43;92.69
12868;BME280;33517;49.866;8.320;2023-02-22T07:06:08;100300.13;;;4.54;92.50
12868;BME280;33517;49.866;8.320;2023-02-22T07:09:00;100313.38;;;4.72;92.20
12868;BME280;33517;49.866;8.320;2023-02-22T07:11:52;100306.31;;;4.84;91.31
12868;BME280;33517;49.866;8.320;2023-02-22T07:14:45;100311.13;;;4.98;91.11
12868;BME280;33517;49.866;8.320;2023-02-22T07:17:37;100316.16;;;4.80;91.08
12868;BME280;33517;49.866;8.320;2023-02-22T07:20:31;100318.56;;;4.62;91.44
12868;BME280;33517;49.866;8.320;2023-02-22T07:23:24;100317.53;;;4.54;92.27
12868;BME280;33517;49.866;8.320;2023-02-22T07:26:16;100324.13;;;4.58;93.55
12868;BME280;33517;49.866;8.320;2023-02-22T07:29:08;100325.84;;;4.68;93.24
12868;BME280;33517;49.866;8.320;2023-02-22T07:32:01;100319.59;;;4.81;93.52
12868;BME280;33517;49.866;8.320;2023-02-22T07:34:53;100328.06;;;5.03;93.87
12868;BME280;33517;49.866;8.320;2023-02-22T07:37:45;100325.25;;;5.35;92.04
12868;BME280;33517;49.866;8.320;2023-02-22T07:40:40;100325.16;;;5.65;91.03
12868;BME280;33517;49.866;8.320;2023-02-22T07:43:32;100324.63;;;5.81;90.59
12868;BME280;33517;49.866;8.320;2023-02-22T07:46:24;100323.59;;;5.93;90.13
12868;BME280;33517;49.866;8.320;2023-02-22T07:49:17;100317.91;;;6.07;89.67
12868;BME280;33517;49.866;8.320;2023-02-22T07:52:09;100313.28;;;6.01;89.52
12868;BME280;33517;49.866;8.320;2023-02-22T07:55:03;100311.31;;;5.74;89.80
12868;BME280;33517;49.866;8.320;2023-02-22T07:57:59;100310.47;;;5.45;90.91
12868;BME280;33517;49.866;8.320;2023-02-22T08:00:52;100310.06;;;5.59;92.01
12868;BME280;33517;49.866;8.320;2023-02-22T08:03:44;100303.75;;;5.81;91.99
12868;BME280;33517;49.866;8.320;2023-02-22T08:06:38;100310.94;;;5.88;91.58
12868;BME280;33517;49.866;8.320;2023-02-22T08:09:30;100303.25;;;5.96;91.25
12868;BME280;33517;49.866;8.320;2023-02-22T08:12:22;100302.69;;;6.12;91.49
12868;BME280;33517;49.866;8.320;2023-02-22T08:15:17;100296.59;;;6.30;90.87
12868;BME280;33517;49.866;8.320;2023-02-22T08:18:11;100300.78;;;6.60;89.97
12868;BME280;33517;49.866;8.320;2023-02-22T08:21:03;100299.91;;;6.79;89.08
12868;BME280;33517;49.866;8.320;2023-02-22T08:23:55;100299.97;;;6.96;88.19
12868;BME280;33517;49.866;8.320;2023-02-22T08:26:49;100307.78;;;7.23;88.07
12868;BME280;33517;49.866;8.320;2023-02-22T08:29:42;100308.41;;;7.35;87.91
12868;BME280;33517;49.866;8.320;2023-02-22T08:32:35;100312.91;;;7.42;87.67
12868;BME280;33517;49.866;8.320;2023-02-22T08:35:28;100316.47;;;7.69;89.00
12868;BME280;33517;49.866;8.320;2023-02-22T08:38:23;100316.44;;;8.04;86.80
12868;BME280;33517;49.866;8.320;2023-02-22T08:41:15;100301.47;;;8.31;86.49
12868;BME280;33517;49.866;8.320;2023-02-22T08:44:07;100311.31;;;8.55;85.61
12868;BME280;33517;49.866;8.320;2023-02-22T08:46:59;100315.13;;;8.61;86.67
12868;BME280;33517;49.866;8.320;2023-02-22T08:49:52;100319.09;;;8.65;86.44
12868;BME280;33517;49.866;8.320;2023-02-22T08:52:44;100313.72;;;8.74;86.13
12868;BME280;33517;49.866;8.320;2023-02-22T08:55:37;100312.66;;;8.93;86.21
12868;BME280;33517;49.866;8.320;2023-02-22T08:58:30;100318.00;;;9.09;86.35
12868;BME280;33517;49.866;8.320;2023-02-22T09:01:22;100312.09;;;9.15;85.95
12868;BME280;33517;49.866;8.320;2023-02-22T09:04:14;100314.97;;;9.29;84.91
12868;BME280;33517;49.866;8.320;2023-02-22T09:07:07;100309.03;;;9.27;85.01
12868;BME280;33517;49.866;8.320;2023-02-22T09:09:59;100319.34;;;9.21;84.82
12868;BME280;33517;49.866;8.320;2023-02-22T09:12:51;100306.84;;;9.15;85.23
12868;BME280;33517;49.866;8.320;2023-02-22T09:15:44;100312.63;;;9.26;85.44
12868;BME280;33517;49.866;8.320;2023-02-22T09:18:36;100306.03;;;9.14;85.41
12868;BME280;33517;49.866;8.320;2023-02-22T09:21:28;100309.22;;;9.34;84.91
12868;BME280;33517;49.866;8.320;2023-02-22T09:24:22;100304.91;;;9.25;85.24
12868;BME280;33517;49.866;8.320;2023-02-22T09:27:15;100297.91;;;9.42;84.37
12868;BME280;33517;49.866;8.320;2023-02-22T09:30:32;100305.28;;;9.38;84.05
12868;BME280;33517;49.866;8.320;2023-02-22T09:33:24;100299.91;;;9.40;84.80
12868;BME280;33517;49.866;8.320;2023-02-22T09:36:16;100296.03;;;9.76;84.22
12868;BME280;33517;49.866;8.320;2023-02-22T09:39:11;100300.13;;;9.94;82.93
12868;BME280;33517;49.866;8.320;2023-02-22T09:42:11;100294.38;;;9.91;83.31
12868;BME280;33517;49.866;8.320;2023-02-22T09:45:13;100299.94;;;9.88;83.39
12868;BME280;33517;49.866;8.320;2023-02-22T09:48:09;100301.66;;;10.13;83.15
12868;BME280;33517;49.866;8.320;2023-02-22T09:51:02;100295.91;;;10.26;81.86
12868;BME280;33517;49.866;8.320;2023-02-22T09:53:58;100287.47;;;10.46;81.94
12868;BME280;33517;49.866;8.320;2023-02-22T09:56:55;100284.81;;;10.62;81.45
12868;BME280;33517;49.866;8.320;2023-02-22T09:59:55;100292.88;;;10.61;81.31
12868;BME280;33517;49.866;8.320;2023-02-22T10:02:56;100286.75;;;10.76;80.78
12868;BME280;33517;49.866;8.320;2023-02-22T10:05:56;100282.31;;;10.77;80.16
12868;BME280;33517;49.866;8.320;2023-02-22T10:08:51;100278.50;;;10.79;79.44
12868;BME280;33517;49.866;8.320;2023-02-22T10:11:54;100278.28;;;10.97;79.63
12868;BME280;33517;49.866;8.320;2023-02-22T10:18:26;100275.22;;;11.16;78.09
12868;BME280;33517;49.866;8.320;2023-02-22T10:21:34;100273.72;;;11.22;77.72
12868;BME280;33517;49.866;8.320;2023-02-22T10:24:40;100277.81;;;11.55;77.53
12868;BME280;33517;49.866;8.320;2023-02-22T10:27:37;100280.91;;;11.58;77.35
12868;BME280;33517;49.866;8.320;2023-02-22T10:30:32;100275.59;;;11.44;76.76
12868;BME280;33517;49.866;8.320;2023-02-22T10:33:29;100272.16;;;11.35;76.82
12868;BME280;33517;49.866;8.320;2023-02-22T10:36:25;100276.13;;;11.31;77.22
12868;BME280;33517;49.866;8.320;2023-02-22T10:39:24;100276.28;;;11.38;76.62
12868;BME280;33517;49.866;8.320;2023-02-22T10:42:20;100272.31;;;11.42;77.31
12868;BME280;33517;49.866;8.320;2023-02-22T10:45:20;100271.28;;;11.43;75.88
12868;BME280;33517;49.866;8.320;2023-02-22T10:48:16;100270.22;;;11.29;76.83
12868;BME280;33517;49.866;8.320;2023-02-22T10:51:12;100277.09;;;11.38;76.27
12868;BME280;33517;49.866;8.320;2023-02-22T10:54:20;100274.06;;;11.49;76.46
12868;BME280;33517;49.866;8.320;2023-02-22T10:57:15;100268.09;;;11.55;76.28
12868;BME280;33517;49.866;8.320;2023-02-22T11:00:17;100266.78;;;11.82;75.86
12868;BME280;33517;49.866;8.320;2023-02-22T11:03:17;100261.94;;;12.08;74.49
12868;BME280;33517;49.866;8.320;2023-02-22T11:06:18;100248.03;;;11.99;74.73
12868;BME280;33517;49.866;8.320;2023-02-22T11:09:13;100247.63;;;12.25;74.74
12868;BME280;33517;49.866;8.320;2023-02-22T11:12:09;100243.00;;;12.42;73.47
12868;BME280;33517;49.866;8.320;2023-02-22T11:15:27;100245.25;;;12.88;73.36
12868;BME280;33517;49.866;8.320;2023-02-22T11:18:25;100243.94;;;13.28;71.30
12868;BME280;33517;49.866;8.320;2023-02-22T11:21:21;100244.03;;;13.35;69.75
12868;BME280;33517;49.866;8.320;2023-02-22T11:24:14;100240.41;;;13.21;71.48
12868;BME280;33517;49.866;8.320;2023-02-22T11:27:07;100235.09;;;13.78;70.27
12868;BME280;33517;49.866;8.320;2023-02-22T11:30:14;100225.69;;;14.18;69.67
12868;BME280;33517;49.866;8.320;2023-02-22T11:33:16;100232.16;;;15.24;68.68
12868;BME280;33517;49.866;8.320;2023-02-22T11:36:30;100223.28;;;16.43;65.47
12868;BME280;33517;49.866;8.320;2023-02-22T11:39:24;100221.13;;;17.35;62.62
12868;BME280;33517;49.866;8.320;2023-02-22T11:42:20;100217.56;;;18.28;60.47
12868;BME280;33517;49.866;8.320;2023-02-22T11:45:15;100221.28;;;19.06;58.67
12868;BME280;33517;49.866;8.320;2023-02-22T11:48:18;100215.84;;;19.72;56.51
12868;BME280;33517;49.866;8.320;2023-02-22T11:51:22;100207.09;;;20.29;55.07
12868;BME280;33517;49.866;8.320;2023-02-22T11:57:46;100200.06;;;20.86;51.98
12868;BME280;33517;49.866;8.320;2023-02-22T12:00:49;100203.16;;;21.06;50.91
12868;BME280;33517;49.866;8.320;2023-02-22T12:04:15;100198.13;;;21.38;49.64
12868;BME280;33517;49.866;8.320;2023-02-22T12:07:23;100194.59;;;21.49;49.39
12868;BME280;33517;49.866;8.320;2023-02-22T12:10:25;100187.69;;;21.53;48.90
12868;BME280;33517;49.866;8.320;2023-02-22T12:13:36;100191.28;;;21.02;49.63
12868;BME280;33517;49.866;8.320;2023-02-22T12:16:44;100191.91;;;21.21;49.45
12868;BME280;33517;49.866;8.320;2023-02-22T12:19:46;100183.34;;;22.13;47.85
12868;BME280;33517;49.866;8.320;2023-02-22T12:22:54;100179.84;;;21.79;47.43
12868;BME280;33517;49.866;8.320;2023-02-22T12:25:56;100178.28;;;20.82;48.43
12868;BME280;33517;49.866;8.320;2023-02-22T12:28:55;100181.38;;;19.82;49.53
12868;BME280;33517;49.866;8.320;2023-02-22T12:31:51;100180.13;;;19.13;50.10
12868;BME280;33517;49.866;8.320;2023-02-22T12:34:49;100182.84;;;18.59;50.48
12868;BME280;33517;49.866;8.320;2023-02-22T12:37:55;100172.22;;;17.92;51.71
12868;BME280;33517;49.866;8.320;2023-02-22T12:40:55;100157.91;;;17.37;53.00
12868;BME280;33517;49.866;8.320;2023-02-22T12:43:53;100161.53;;;17.49;53.09
12868;BME280;33517;49.866;8.320;2023-02-22T12:46:49;100165.16;;;18.04;53.69
12868;BME280;33517;49.866;8.320;2023-02-22T12:49:45;100168.53;;;18.90;51.43
12868;BME280;33517;49.866;8.320;2023-02-22T12:52:43;100160.25;;;19.92;51.05
12868;BME280;33517;49.866;8.320;2023-02-22T12:55:40;100158.53;;;20.21;49.53
12868;BME280;33517;49.866;8.320;2023-02-22T12:58:38;100157.91;;;20.65;49.17
12868;BME280;33517;49.866;8.320;2023-02-22T13:01:38;100155.63;;;21.13;48.31
12868;BME280;33517;49.866;8.320;2023-02-22T13:04:31;100151.81;;;21.37;47.38
12868;BME280;33517;49.866;8.320;2023-02-22T13:07:36;100150.47;;;20.95;48.97
12868;BME280;33517;49.866;8.320;2023-02-22T13:10:49;100147.69;;;21.63;47.42
12868;BME280;33517;49.866;8.320;2023-02-22T13:13:50;100141.44;;;21.57;48.12
12868;BME280;33517;49.866;8.320;2023-02-22T13:16:52;100136.00;;;21.07;46.28
12868;BME280;33517;49.866;8.320;2023-02-22T13:19:52;100139.31;;;20.47;47.57
12868;BME280;33517;49.866;8.320;2023-02-22T13:22:49;100128.41;;;20.13;48.66
12868;BME280;33517;49.866;8.320;2023-02-22T13:25:47;100122.97;;;20.08;48.41
12868;BME280;33517;49.866;8.320;2023-02-22T13:28:48;100129.00;;;19.92;48.26
12868;BME280;33517;49.866;8.320;2023-02-22T13:32:01;100131.19;;;19.61;48.82
12868;BME280;33517;49.866;8.320;2023-02-22T13:35:14;100118.03;;;19.36;49.31
12868;BME280;33517;49.866;8.320;2023-02-22T13:38:28;100117.53;;;19.27;49.28
12868;BME280;33517;49.866;8.320;2023-02-22T13:41:51;100118.75;;;19.02;49.17
12868;BME280;33517;49.866;8.320;2023-02-22T13:45:28;100113.63;;;19.12;49.43
12868;BME280;33517;49.866;8.320;2023-02-22T13:51:55;100097.56;;;18.23;51.14
12868;BME280;33517;49.866;8.320;2023-02-22T13:54:50;100097.63;;;17.98;50.95
12868;BME280;33517;49.866;8.320;2023-02-22T13:57:46;100092.22;;;18.23;50.94
12868;BME280;33517;49.866;8.320;2023-02-22T14:00:44;100096.16;;;18.57;50.20
12868;BME280;33517;49.866;8.320;2023-02-22T14:03:38;100101.22;;;18.47;50.65
12868;BME280;33517;49.866;8.320;2023-02-22T14:06:35;100096.69;;;18.47;50.76
12868;BME280;33517;49.866;8.320;2023-02-22T14:09:44;100093.91;;;18.35;50.92
12868;BME280;33517;49.866;8.320;2023-02-22T14:12:48;100088.56;;;18.42;50.63
12868;BME280;33517;49.866;8.320;2023-02-22T14:16:16;100089.25;;;18.13;51.25
12868;BME280;33517;49.866;8.320;2023-02-22T14:19:16;100092.13;;;17.93;51.19
12868;BME280;33517;49.866;8.320;2023-02-22T14:22:12;100090.19;;;17.64;51.66
12868;BME280;33517;49.866;8.320;2023-02-22T14:25:33;100085.31;;;17.30;52.04
12868;BME280;33517;49.866;8.320;2023-02-22T14:28:38;100079.44;;;16.90;53.43
12868;BME280;33517;49.866;8.320;2023-02-22T14:31:33;100083.41;;;16.75;53.65
12868;BME280;33517;49.866;8.320;2023-02-22T14:34:42;100080.66;;;16.50;54.22
12868;BME280;33517;49.866;8.320;2023-02-22T14:37:37;100082.19;;;16.26;54.69
12868;BME280;33517;49.866;8.320;2023-02-22T14:40:36;100072.22;;;16.09;54.74
12868;BME280;33517;49.866;8.320;2023-02-22T14:43:28;100074.09;;;15.89;55.37
12868;BME280;33517;49.866;8.320;2023-02-22T14:46:24;100068.63;;;15.64;55.98
12868;BME280;33517;49.866;8.320;2023-02-22T14:49:20;100070.69;;;15.49;56.80
12868;BME280;33517;49.866;8.320;2023-02-22T14:52:20;100072.69;;;15.34;57.02
12868;BME280;33517;49.866;8.320;2023-02-22T14:55:17;100076.97;;;15.09;57.59
12868;BME280;33517;49.866;8.320;2023-02-22T14:58:17;100071.22;;;14.99;58.21
12868;BME280;33517;49.866;8.320;2023-02-22T15:01:21;100070.63;;;14.90;58.35
12868;BME280;33517;49.866;8.320;2023-02-22T15:04:19;100076.75;;;14.91;59.00
12868;BME280;33517;49.866;8.320;2023-02-22T15:07:21;100068.56;;;14.79;59.44
12868;BME280;33517;49.866;8.320;2023-02-22T15:10:21;100067.31;;;14.62;60.78
12868;BME280;33517;49.866;8.320;2023-02-22T15:13:18;100072.97;;;14.52;60.88
12868;BME280;33517;49.866;8.320;2023-02-22T15:16:14;100073.53;;;14.41;61.26
12868;BME280;33517;49.866;8.320;2023-02-22T15:19:05;100070.81;;;14.28;61.51
12868;BME280;33517;49.866;8.320;2023-02-22T15:22:00;100070.94;;;14.14;62.11
12868;BME280;33517;49.866;8.320;2023-02-22T15:24:57;100072.06;;;13.98;63.05
12868;BME280;33517;49.866;8.320;2023-02-22T15:27:49;100072.81;;;13.85;63.38
12868;BME280;33517;49.866;8.320;2023-02-22T15:30:43;100073.19;;;13.76;63.87
12868;BME280;33517;49.866;8.320;2023-02-22T15:33:35;100073.13;;;13.69;64.13
12868;BME280;33517;49.866;8.320;2023-02-22T15:36:28;100073.22;;;13.55;64.54
12868;BME280;33517;49.866;8.320;2023-02-22T15:39:23;100078.22;;;13.43;65.05
12868;BME280;33517;49.866;8.320;2023-02-22T15:42:17;100071.84;;;13.38;65.61
12868;BME280;33517;49.866;8.320;2023-02-22T15:45:14;100076.91;;;13.33;66.38